sensor_id;sensor_type;location;lat;lon;timestamp;P1;durP1;ratioP1;P2;durP2;ratioP2
20705;SDS011;10514;49.468;11.044;2022-09-13T00:00:45;6.32;;;5.32;;
20705;SDS011;10514;49.468;11.044;2022-09-13T00:03:13;6.45;;;5.80;;
20705;SDS011;10514;49.468;11.044;2022-09-13T00:05:39;9.52;;;6.40;;
20705;SDS011;10514;49.468;11.044;2022-09-13T00:08:05;6.40;;;5.07;;
20705;SDS011;10514;49.468;11.044;2022-09-13T00:10:35;8.65;;;6.00;;
20705;SDS011;10514;49.468;11.044;2022-09-13T00:13:03;7.63;;;5.28;;
20705;SDS011;10514;49.468;11.044;2022-09-13T00:15:29;7.13;;;5.95;;
20705;SDS011;10514;49.468;11.044;2022-09-13T00:17:55;6.22;;;5.03;;
20705;SDS011;10514;49.468;11.044;2022-09-13T00:20:21;7.63;;;5.90;;
20705;SDS011;10514;49.468;11.044;2022-09-13T00:22:47;9.57;;;5.75;;
20705;SDS011;10514;49.468;11.044;2022-09-13T00:25:13;7.32;;;5.53;;
20705;SDS011;10514;49.468;11.044;2022-09-13T00:27:39;7.45;;;6.15;;
20705;SDS011;10514;49.468;11.044;2022-09-13T00:30:05;7.70;;;5.80;;
20705;SDS011;10514;49.468;11.044;2022-09-13T00:32:32;7.40;;;5.68;;
20705;SDS011;10514;49.468;11.044;2022-09-13T00:34:58;7.50;;;5.75;;
20705;SDS011;10514;49.468;11.044;2022-09-13T00:37:24;6.93;;;6.07;;
20705;SDS011;10514;49.468;11.044;2022-09-13T00:39:50;7.60;;;5.68;;
20705;SDS011;10514;49.468;11.044;2022-09-13T00:42:16;8.63;;;6.25;;
20705;SDS011;10514;49.468;11.044;2022-09-13T00:44:52;9.55;;;5.65;;
20705;SDS011;10514;49.468;11.044;2022-09-13T00:47:42;9.25;;;5.93;;
20705;SDS011;10514;49.468;11.044;2022-09-13T00:52:43;11.73;;;5.90;;
20705;SDS011;10514;49.468;11.044;2022-09-13T00:55:15;14.73;;;6.28;;
20705;SDS011;10514;49.468;11.044;2022-09-13T00:57:50;7.90;;;5.82;;
20705;SDS011;10514;49.468;11.044;2022-09-13T01:00:17;6.75;;;6.05;;
20705;SDS011;10514;49.468;11.044;2022-09-13T01:02:48;7.70;;;6.20;;
20705;SDS011;10514;49.468;11.044;2022-09-13T01:05:15;5.82;;;5.07;;
20705;SDS011;10514;49.468;11.044;2022-09-13T01:07:43;8.15;;;6.50;;
20705;SDS011;10514;49.468;11.044;2022-09-13T01:10:10;7.35;;;5.85;;
20705;SDS011;10514;49.468;11.044;2022-09-13T01:12:39;7.63;;;5.93;;
20705;SDS011;10514;49.468;11.044;2022-09-13T01:15:08;7.63;;;5.50;;
20705;SDS011;10514;49.468;11.044;2022-09-13T01:17:34;6.35;;;5.20;;
20705;SDS011;10514;49.468;11.044;2022-09-13T01:20:01;8.77;;;5.68;;
20705;SDS011;10514;49.468;11.044;2022-09-13T01:22:38;7.90;;;5.70;;
20705;SDS011;10514;49.468;11.044;2022-09-13T01:30:20;5.93;;;5.30;;
20705;SDS011;10514;49.468;11.044;2022-09-13T01:38:12;6.85;;;5.20;;
20705;SDS011;10514;49.468;11.044;2022-09-13T01:43:39;6.68;;;5.43;;
20705;SDS011;10514;49.468;11.044;2022-09-13T01:46:08;9.45;;;6.18;;
20705;SDS011;10514;49.468;11.044;2022-09-13T01:51:30;5.22;;;4.32;;
20705;SDS011;10514;49.468;11.044;2022-09-13T01:54:02;6.68;;;4.90;;
20705;SDS011;10514;49.468;11.044;2022-09-13T01:56:54;6.53;;;5.43;;
20705;SDS011;10514;49.468;11.044;2022-09-13T01:59:20;6.10;;;5.50;;
20705;SDS011;10514;49.468;11.044;2022-09-13T02:02:02;6.68;;;5.38;;
20705;SDS011;10514;49.468;11.044;2022-09-13T02:04:32;8.48;;;5.88;;
20705;SDS011;10514;49.468;11.044;2022-09-13T02:07:06;8.10;;;5.28;;
20705;SDS011;10514;49.468;11.044;2022-09-13T02:09:37;5.88;;;5.15;;
20705;SDS011;10514;49.468;11.044;2022-09-13T02:12:06;7.50;;;5.13;;
20705;SDS011;10514;49.468;11.044;2022-09-13T02:14:38;8.55;;;5.95;;
20705;SDS011;10514;49.468;11.044;2022-09-13T02:17:12;7.90;;;5.75;;
20705;SDS011;10514;49.468;11.044;2022-09-13T02:19:40;7.45;;;6.25;;
20705;SDS011;10514;49.468;11.044;2022-09-13T02:22:09;7.60;;;5.80;;
20705;SDS011;10514;49.468;11.044;2022-09-13T02:24:38;10.18;;;5.90;;
20705;SDS011;10514;49.468;11.044;2022-09-13T02:27:11;7.45;;;5.65;;
20705;SDS011;10514;49.468;11.044;2022-09-13T02:29:41;6.57;;;5.43;;
20705;SDS011;10514;49.468;11.044;2022-09-13T02:32:10;6.93;;;5.30;;
20705;SDS011;10514;49.468;11.044;2022-09-13T02:34:41;8.23;;;5.03;;
20705;SDS011;10514;49.468;11.044;2022-09-13T02:37:12;5.78;;;4.60;;
20705;SDS011;10514;49.468;11.044;2022-09-13T02:39:43;7.22;;;5.93;;
20705;SDS011;10514;49.468;11.044;2022-09-13T02:42:17;6.53;;;5.25;;
20705;SDS011;10514;49.468;11.044;2022-09-13T02:44:46;7.80;;;6.07;;
20705;SDS011;10514;49.468;11.044;2022-09-13T02:52:42;11.70;;;6.05;;
20705;SDS011;10514;49.468;11.044;2022-09-13T03:00:29;11.25;;;6.47;;
20705;SDS011;10514;49.468;11.044;2022-09-13T03:02:55;7.55;;;6.00;;
20705;SDS011;10514;49.468;11.044;2022-09-13T03:05:26;7.03;;;5.55;;
20705;SDS011;10514;49.468;11.044;2022-09-13T03:07:52;6.82;;;5.43;;
20705;SDS011;10514;49.468;11.044;2022-09-13T03:10:18;6.88;;;5.65;;
20705;SDS011;10514;49.468;11.044;2022-09-13T03:12:49;7.78;;;6.40;;
20705;SDS011;10514;49.468;11.044;2022-09-13T03:20:35;11.90;;;5.88;;
20705;SDS011;10514;49.468;11.044;2022-09-13T03:25:54;10.20;;;6.00;;
20705;SDS011;10514;49.468;11.044;2022-09-13T03:31:11;7.93;;;5.68;;
20705;SDS011;10514;49.468;11.044;2022-09-13T03:33:46;5.88;;;5.03;;
20705;SDS011;10514;49.468;11.044;2022-09-13T03:36:26;7.60;;;5.30;;
20705;SDS011;10514;49.468;11.044;2022-09-13T03:39:01;7.47;;;5.60;;
20705;SDS011;10514;49.468;11.044;2022-09-13T03:41:46;7.68;;;5.10;;
20705;SDS011;10514;49.468;11.044;2022-09-13T03:44:15;7.50;;;5.07;;
20705;SDS011;10514;49.468;11.044;2022-09-13T03:46:43;9.13;;;5.20;;
20705;SDS011;10514;49.468;11.044;2022-09-13T03:49:13;8.18;;;5.53;;
20705;SDS011;10514;49.468;11.044;2022-09-13T03:51:39;7.72;;;5.32;;
20705;SDS011;10514;49.468;11.044;2022-09-13T03:54:11;7.00;;;5.43;;
20705;SDS011;10514;49.468;11.044;2022-09-13T03:56:39;6.38;;;4.95;;
20705;SDS011;10514;49.468;11.044;2022-09-13T03:59:04;7.22;;;5.30;;
20705;SDS011;10514;49.468;11.044;2022-09-13T04:01:30;8.48;;;5.55;;
20705;SDS011;10514;49.468;11.044;2022-09-13T04:03:56;8.55;;;5.80;;
20705;SDS011;10514;49.468;11.044;2022-09-13T04:06:23;9.85;;;6.40;;
20705;SDS011;10514;49.468;11.044;2022-09-13T04:08:48;10.60;;;5.50;;
20705;SDS011;10514;49.468;11.044;2022-09-13T04:11:14;9.77;;;5.97;;
20705;SDS011;10514;49.468;11.044;2022-09-13T04:13:40;8.90;;;6.05;;
20705;SDS011;10514;49.468;11.044;2022-09-13T04:16:06;7.70;;;6.32;;
20705;SDS011;10514;49.468;11.044;2022-09-13T04:18:32;6.50;;;5.45;;
20705;SDS011;10514;49.468;11.044;2022-09-13T04:20:59;8.32;;;6.32;;
20705;SDS011;10514;49.468;11.044;2022-09-13T04:23:26;7.05;;;5.82;;
20705;SDS011;10514;49.468;11.044;2022-09-13T04:25:52;10.55;;;6.32;;
20705;SDS011;10514;49.468;11.044;2022-09-13T04:28:19;7.90;;;5.45;;
20705;SDS011;10514;49.468;11.044;2022-09-13T04:30:46;8.90;;;6.32;;
20705;SDS011;10514;49.468;11.044;2022-09-13T04:33:12;8.18;;;5.30;;
20705;SDS011;10514;49.468;11.044;2022-09-13T04:35:38;6.85;;;5.53;;
20705;SDS011;10514;49.468;11.044;2022-09-13T04:38:05;8.07;;;5.90;;
20705;SDS011;10514;49.468;11.044;2022-09-13T04:40:31;13.32;;;6.53;;
20705;SDS011;10514;49.468;11.044;2022-09-13T04:42:57;8.45;;;6.32;;
20705;SDS011;10514;49.468;11.044;2022-09-13T04:45:23;7.63;;;6.38;;
20705;SDS011;10514;49.468;11.044;2022-09-13T04:47:52;9.20;;;7.00;;
20705;SDS011;10514;49.468;11.044;2022-09-13T04:50:18;9.90;;;6.63;;
20705;SDS011;10514;49.468;11.044;2022-09-13T04:52:45;8.18;;;6.00;;
20705;SDS011;10514;49.468;11.044;2022-09-13T04:55:11;7.03;;;4.85;;
20705;SDS011;10514;49.468;11.044;2022-09-13T04:57:37;8.95;;;6.22;;
20705;SDS011;10514;49.468;11.044;2022-09-13T05:00:04;7.03;;;5.65;;
20705;SDS011;10514;49.468;11.044;2022-09-13T05:02:30;6.72;;;5.57;;
20705;SDS011;10514;49.468;11.044;2022-09-13T05:04:56;8.85;;;6.82;;
20705;SDS011;10514;49.468;11.044;2022-09-13T05:07:22;9.27;;;6.82;;
20705;SDS011;10514;49.468;11.044;2022-09-13T05:09:48;8.32;;;5.88;;
20705;SDS011;10514;49.468;11.044;2022-09-13T05:12:14;10.68;;;6.57;;
20705;SDS011;10514;49.468;11.044;2022-09-13T05:14:40;9.63;;;6.22;;
20705;SDS011;10514;49.468;11.044;2022-09-13T05:17:06;7.55;;;6.10;;
20705;SDS011;10514;49.468;11.044;2022-09-13T05:19:32;8.88;;;6.43;;
20705;SDS011;10514;49.468;11.044;2022-09-13T05:21:59;7.07;;;5.60;;
20705;SDS011;10514;49.468;11.044;2022-09-13T05:24:25;9.10;;;5.53;;
20705;SDS011;10514;49.468;11.044;2022-09-13T05:26:51;7.80;;;6.18;;
20705;SDS011;10514;49.468;11.044;2022-09-13T05:29:17;8.75;;;6.63;;
20705;SDS011;10514;49.468;11.044;2022-09-13T05:31:43;11.80;;;6.95;;
20705;SDS011;10514;49.468;11.044;2022-09-13T05:34:10;9.63;;;6.75;;
20705;SDS011;10514;49.468;11.044;2022-09-13T05:36:36;8.73;;;6.35;;
20705;SDS011;10514;49.468;11.044;2022-09-13T05:39:03;13.82;;;6.68;;
20705;SDS011;10514;49.468;11.044;2022-09-13T05:41:29;13.15;;;7.18;;
20705;SDS011;10514;49.468;11.044;2022-09-13T05:43:55;9.98;;;7.18;;
20705;SDS011;10514;49.468;11.044;2022-09-13T05:46:21;10.32;;;7.82;;
20705;SDS011;10514;49.468;11.044;2022-09-13T05:48:47;10.80;;;7.07;;
20705;SDS011;10514;49.468;11.044;2022-09-13T05:51:14;12.85;;;7.28;;
20705;SDS011;10514;49.468;11.044;2022-09-13T05:53:41;11.43;;;7.13;;
20705;SDS011;10514;49.468;11.044;2022-09-13T05:56:10;9.50;;;6.55;;
20705;SDS011;10514;49.468;11.044;2022-09-13T05:58:38;8.52;;;6.50;;
20705;SDS011;10514;49.468;11.044;2022-09-13T06:01:04;8.77;;;6.85;;
20705;SDS011;10514;49.468;11.044;2022-09-13T06:03:30;9.75;;;7.07;;
20705;SDS011;10514;49.468;11.044;2022-09-13T06:05:56;9.48;;;7.45;;
20705;SDS011;10514;49.468;11.044;2022-09-13T06:08:26;9.02;;;6.55;;
20705;SDS011;10514;49.468;11.044;2022-09-13T06:10:54;10.63;;;7.50;;
20705;SDS011;10514;49.468;11.044;2022-09-13T06:13:21;9.73;;;5.68;;
20705;SDS011;10514;49.468;11.044;2022-09-13T06:15:46;8.38;;;5.43;;
20705;SDS011;10514;49.468;11.044;2022-09-13T06:18:12;10.82;;;5.78;;
20705;SDS011;10514;49.468;11.044;2022-09-13T06:20:38;8.40;;;6.05;;
20705;SDS011;10514;49.468;11.044;2022-09-13T06:23:04;8.93;;;6.35;;
20705;SDS011;10514;49.468;11.044;2022-09-13T06:25:30;9.40;;;6.05;;
20705;SDS011;10514;49.468;11.044;2022-09-13T06:27:56;8.75;;;6.45;;
20705;SDS011;10514;49.468;11.044;2022-09-13T06:30:22;12.60;;;7.15;;
20705;SDS011;10514;49.468;11.044;2022-09-13T06:32:48;10.63;;;6.90;;
20705;SDS011;10514;49.468;11.044;2022-09-13T06:35:14;5.65;;;4.85;;
20705;SDS011;10514;49.468;11.044;2022-09-13T06:37:40;7.97;;;6.00;;
20705;SDS011;10514;49.468;11.044;2022-09-13T06:40:07;9.93;;;5.88;;
20705;SDS011;10514;49.468;11.044;2022-09-13T06:42:34;8.90;;;5.72;;
20705;SDS011;10514;49.468;11.044;2022-09-13T06:45:00;9.20;;;6.40;;
20705;SDS011;10514;49.468;11.044;2022-09-13T06:47:26;7.57;;;6.07;;
20705;SDS011;10514;49.468;11.044;2022-09-13T06:49:52;7.10;;;6.03;;
20705;SDS011;10514;49.468;11.044;2022-09-13T06:52:18;10.73;;;6.20;;
20705;SDS011;10514;49.468;11.044;2022-09-13T06:54:45;9.52;;;5.65;;
20705;SDS011;10514;49.468;11.044;2022-09-13T06:57:13;7.53;;;6.22;;
20705;SDS011;10514;49.468;11.044;2022-09-13T06:59:39;8.80;;;6.63;;
20705;SDS011;10514;49.468;11.044;2022-09-13T07:02:05;9.32;;;5.82;;
20705;SDS011;10514;49.468;11.044;2022-09-13T07:04:31;7.47;;;5.10;;
20705;SDS011;10514;49.468;11.044;2022-09-13T07:06:57;6.28;;;4.90;;
20705;SDS011;10514;49.468;11.044;2022-09-13T07:09:24;6.47;;;5.15;;
20705;SDS011;10514;49.468;11.044;2022-09-13T07:11:51;6.65;;;5.40;;
20705;SDS011;10514;49.468;11.044;2022-09-13T07:14:19;6.60;;;5.25;;
20705;SDS011;10514;49.468;11.044;2022-09-13T07:16:47;7.57;;;5.32;;
20705;SDS011;10514;49.468;11.044;2022-09-13T07:19:14;7.80;;;5.90;;
20705;SDS011;10514;49.468;11.044;2022-09-13T07:21:41;6.18;;;4.50;;
20705;SDS011;10514;49.468;11.044;2022-09-13T07:24:07;6.53;;;5.30;;
20705;SDS011;10514;49.468;11.044;2022-09-13T07:26:33;7.47;;;5.18;;
20705;SDS011;10514;49.468;11.044;2022-09-13T07:29:00;7.97;;;5.72;;
20705;SDS011;10514;49.468;11.044;2022-09-13T07:31:29;9.88;;;5.50;;
20705;SDS011;10514;49.468;11.044;2022-09-13T07:34:00;11.57;;;5.63;;
20705;SDS011;10514;49.468;11.044;2022-09-13T07:36:27;8.57;;;5.93;;
20705;SDS011;10514;49.468;11.044;2022-09-13T07:38:54;7.40;;;5.55;;
20705;SDS011;10514;49.468;11.044;2022-09-13T07:41:21;8.68;;;6.57;;
20705;SDS011;10514;49.468;11.044;2022-09-13T07:43:47;7.60;;;5.80;;
20705;SDS011;10514;49.468;11.044;2022-09-13T07:46:17;8.65;;;5.97;;
20705;SDS011;10514;49.468;11.044;2022-09-13T07:48:44;7.80;;;6.50;;
20705;SDS011;10514;49.468;11.044;2022-09-13T07:51:14;8.25;;;6.28;;
20705;SDS011;10514;49.468;11.044;2022-09-13T07:53:42;12.57;;;6.22;;
20705;SDS011;10514;49.468;11.044;2022-09-13T07:56:09;8.75;;;5.97;;
20705;SDS011;10514;49.468;11.044;2022-09-13T07:58:36;7.68;;;5.57;;
20705;SDS011;10514;49.468;11.044;2022-09-13T08:03:33;8.60;;;5.20;;
20705;SDS011;10514;49.468;11.044;2022-09-13T08:05:59;8.00;;;4.93;;
20705;SDS011;10514;49.468;11.044;2022-09-13T08:08:26;6.13;;;4.20;;
20705;SDS011;10514;49.468;11.044;2022-09-13T08:10:52;5.88;;;4.50;;
20705;SDS011;10514;49.468;11.044;2022-09-13T08:13:18;6.32;;;4.82;;
20705;SDS011;10514;49.468;11.044;2022-09-13T08:15:44;5.60;;;5.07;;
20705;SDS011;10514;49.468;11.044;2022-09-13T08:18:09;5.28;;;4.53;;
20705;SDS011;10514;49.468;11.044;2022-09-13T08:20:36;7.07;;;5.80;;
20705;SDS011;10514;49.468;11.044;2022-09-13T08:23:02;7.82;;;4.97;;
20705;SDS011;10514;49.468;11.044;2022-09-13T08:25:30;7.85;;;5.45;;
20705;SDS011;10514;49.468;11.044;2022-09-13T08:27:58;5.55;;;4.47;;
20705;SDS011;10514;49.468;11.044;2022-09-13T08:30:24;6.75;;;5.00;;
20705;SDS011;10514;49.468;11.044;2022-09-13T08:32:57;6.78;;;4.60;;
20705;SDS011;10514;49.468;11.044;2022-09-13T08:35:23;5.03;;;4.00;;
20705;SDS011;10514;49.468;11.044;2022-09-13T08:37:49;6.78;;;4.55;;
20705;SDS011;10514;49.468;11.044;2022-09-13T08:40:15;7.45;;;4.60;;
20705;SDS011;10514;49.468;11.044;2022-09-13T08:42:53;5.85;;;4.82;;
20705;SDS011;10514;49.468;11.044;2022-09-13T08:45:23;8.35;;;5.22;;
20705;SDS011;10514;49.468;11.044;2022-09-13T08:47:51;5.68;;;4.03;;
20705;SDS011;10514;49.468;11.044;2022-09-13T08:50:26;4.35;;;3.63;;
20705;SDS011;10514;49.468;11.044;2022-09-13T08:53:04;8.27;;;3.67;;
20705;SDS011;10514;49.468;11.044;2022-09-13T09:00:58;6.05;;;4.78;;
20705;SDS011;10514;49.468;11.044;2022-09-13T09:06:32;6.85;;;4.05;;
20705;SDS011;10514;49.468;11.044;2022-09-13T09:14:05;5.28;;;3.25;;
20705;SDS011;10514;49.468;11.044;2022-09-13T09:19:32;6.10;;;3.78;;
20705;SDS011;10514;49.468;11.044;2022-09-13T09:22:03;6.55;;;3.42;;
20705;SDS011;10514;49.468;11.044;2022-09-13T09:24:34;4.25;;;3.85;;
20705;SDS011;10514;49.468;11.044;2022-09-13T09:27:07;5.47;;;3.67;;
20705;SDS011;10514;49.468;11.044;2022-09-13T09:29:40;4.90;;;3.53;;
20705;SDS011;10514;49.468;11.044;2022-09-13T09:35:22;6.15;;;3.85;;
20705;SDS011;10514;49.468;11.044;2022-09-13T09:38:18;6.05;;;4.28;;
20705;SDS011;10514;49.468;11.044;2022-09-13T09:44:01;6.63;;;3.25;;
20705;SDS011;10514;49.468;11.044;2022-09-13T09:46:50;5.20;;;3.00;;
20705;SDS011;10514;49.468;11.044;2022-09-13T09:49:54;4.95;;;3.70;;
20705;SDS011;10514;49.468;11.044;2022-09-13T09:55:30;4.97;;;3.33;;
20705;SDS011;10514;49.468;11.044;2022-09-13T09:58:03;4.72;;;3.45;;
20705;SDS011;10514;49.468;11.044;2022-09-13T10:00:34;4.82;;;3.70;;
20705;SDS011;10514;49.468;11.044;2022-09-13T10:03:14;9.43;;;4.15;;
20705;SDS011;10514;49.468;11.044;2022-09-13T10:05:42;17.42;;;9.27;;
20705;SDS011;10514;49.468;11.044;2022-09-13T10:08:20;14.60;;;8.73;;
20705;SDS011;10514;49.468;11.044;2022-09-13T10:10:53;5.57;;;3.85;;
20705;SDS011;10514;49.468;11.044;2022-09-13T10:13:21;7.75;;;3.83;;
20705;SDS011;10514;49.468;11.044;2022-09-13T10:15:58;9.82;;;3.65;;
20705;SDS011;10514;49.468;11.044;2022-09-13T10:18:25;5.32;;;4.00;;
20705;SDS011;10514;49.468;11.044;2022-09-13T10:21:02;9.70;;;4.05;;
20705;SDS011;10514;49.468;11.044;2022-09-13T10:23:28;4.38;;;3.97;;
20705;SDS011;10514;49.468;11.044;2022-09-13T10:25:55;4.57;;;3.97;;
20705;SDS011;10514;49.468;11.044;2022-09-13T10:28:23;5.03;;;3.38;;
20705;SDS011;10514;49.468;11.044;2022-09-13T10:31:05;4.57;;;3.33;;
20705;SDS011;10514;49.468;11.044;2022-09-13T10:33:35;5.22;;;3.63;;
20705;SDS011;10514;49.468;11.044;2022-09-13T10:36:24;7.45;;;3.40;;
20705;SDS011;10514;49.468;11.044;2022-09-13T10:39:03;4.95;;;3.03;;
20705;SDS011;10514;49.468;11.044;2022-09-13T10:41:30;4.78;;;2.92;;
20705;SDS011;10514;49.468;11.044;2022-09-13T10:44:01;4.93;;;3.13;;
20705;SDS011;10514;49.468;11.044;2022-09-13T10:46:28;7.68;;;3.20;;
20705;SDS011;10514;49.468;11.044;2022-09-13T10:48:55;6.15;;;3.25;;
20705;SDS011;10514;49.468;11.044;2022-09-13T10:51:28;4.10;;;3.55;;
20705;SDS011;10514;49.468;11.044;2022-09-13T10:54:21;3.85;;;2.70;;
20705;SDS011;10514;49.468;11.044;2022-09-13T10:56:48;4.57;;;2.95;;
20705;SDS011;10514;49.468;11.044;2022-09-13T10:59:27;4.70;;;2.97;;
20705;SDS011;10514;49.468;11.044;2022-09-13T11:04:44;6.00;;;3.47;;
20705;SDS011;10514;49.468;11.044;2022-09-13T11:07:15;4.22;;;2.90;;
20705;SDS011;10514;49.468;11.044;2022-09-13T11:17:20;4.10;;;2.50;;
20705;SDS011;10514;49.468;11.044;2022-09-13T11:20:28;3.83;;;2.80;;
20705;SDS011;10514;49.468;11.044;2022-09-13T11:26:09;3.65;;;2.30;;
20705;SDS011;10514;49.468;11.044;2022-09-13T11:31:42;4.28;;;2.38;;
20705;SDS011;10514;49.468;11.044;2022-09-13T11:42:46;4.28;;;2.20;;
20705;SDS011;10514;49.468;11.044;2022-09-13T11:44:50;6.70;;;2.88;;
20705;SDS011;10514;49.468;11.044;2022-09-13T11:55:05;4.07;;;2.47;;
20705;SDS011;10514;49.468;11.044;2022-09-13T11:58:22;4.55;;;2.20;;
20705;SDS011;10514;49.468;11.044;2022-09-13T12:00:40;7.20;;;2.60;;
20705;SDS011;10514;49.468;11.044;2022-09-13T12:05:38;3.03;;;2.40;;
20705;SDS011;10514;49.468;11.044;2022-09-13T12:08:23;4.05;;;3.13;;
20705;SDS011;10514;49.468;11.044;2022-09-13T12:11:21;6.28;;;2.90;;
20705;SDS011;10514;49.468;11.044;2022-09-13T12:16:19;3.33;;;2.75;;
20705;SDS011;10514;49.468;11.044;2022-09-13T12:19:00;3.15;;;2.63;;
20705;SDS011;10514;49.468;11.044;2022-09-13T12:21:31;2.92;;;2.63;;
20705;SDS011;10514;49.468;11.044;2022-09-13T12:24:03;5.97;;;2.80;;
20705;SDS011;10514;49.468;11.044;2022-09-13T12:27:11;5.05;;;2.72;;
20705;SDS011;10514;49.468;11.044;2022-09-13T12:29:39;4.40;;;2.95;;
20705;SDS011;10514;49.468;11.044;2022-09-13T12:32:08;3.70;;;3.20;;
20705;SDS011;10514;49.468;11.044;2022-09-13T12:34:50;4.13;;;2.60;;
20705;SDS011;10514;49.468;11.044;2022-09-13T12:39:51;3.10;;;2.80;;
20705;SDS011;10514;49.468;11.044;2022-09-13T12:42:24;3.72;;;2.60;;
20705;SDS011;10514;49.468;11.044;2022-09-13T12:45:16;3.10;;;2.45;;
20705;SDS011;10514;49.468;11.044;2022-09-13T13:01:20;4.28;;;3.05;;
20705;SDS011;10514;49.468;11.044;2022-09-13T13:06:29;4.55;;;2.92;;
20705;SDS011;10514;49.468;11.044;2022-09-13T13:08:58;3.03;;;2.67;;
20705;SDS011;10514;49.468;11.044;2022-09-13T13:11:26;2.45;;;2.25;;
20705;SDS011;10514;49.468;11.044;2022-09-13T13:13:56;2.80;;;2.47;;
20705;SDS011;10514;49.468;11.044;2022-09-13T13:18:52;5.13;;;2.92;;
20705;SDS011;10514;49.468;11.044;2022-09-13T13:21:23;3.95;;;2.65;;
20705;SDS011;10514;49.468;11.044;2022-09-13T13:26:47;4.03;;;3.17;;
20705;SDS011;10514;49.468;11.044;2022-09-13T13:29:20;3.28;;;2.38;;
20705;SDS011;10514;49.468;11.044;2022-09-13T13:34:27;4.22;;;2.85;;
20705;SDS011;10514;49.468;11.044;2022-09-13T13:36:57;3.22;;;2.63;;
20705;SDS011;10514;49.468;11.044;2022-09-13T13:41:54;5.70;;;2.63;;
20705;SDS011;10514;49.468;11.044;2022-09-13T13:46:47;5.35;;;2.90;;
20705;SDS011;10514;49.468;11.044;2022-09-13T13:57:25;6.03;;;3.38;;
20705;SDS011;10514;49.468;11.044;2022-09-13T14:00:34;4.10;;;3.22;;
20705;SDS011;10514;49.468;11.044;2022-09-13T14:15:39;3.40;;;3.10;;
20705;SDS011;10514;49.468;11.044;2022-09-13T14:18:31;3.95;;;3.25;;
20705;SDS011;10514;49.468;11.044;2022-09-13T14:21:02;3.63;;;2.97;;
20705;SDS011;10514;49.468;11.044;2022-09-13T14:23:28;5.53;;;3.25;;
20705;SDS011;10514;49.468;11.044;2022-09-13T14:25:56;3.05;;;2.75;;
20705;SDS011;10514;49.468;11.044;2022-09-13T14:28:22;3.60;;;2.83;;
20705;SDS011;10514;49.468;11.044;2022-09-13T14:30:57;3.42;;;2.75;;
20705;SDS011;10514;49.468;11.044;2022-09-13T14:33:25;3.92;;;3.45;;
20705;SDS011;10514;49.468;11.044;2022-09-13T14:36:03;3.22;;;2.78;;
20705;SDS011;10514;49.468;11.044;2022-09-13T14:38:45;3.38;;;2.40;;
20705;SDS011;10514;49.468;11.044;2022-09-13T14:41:14;6.30;;;3.20;;
20705;SDS011;10514;49.468;11.044;2022-09-13T14:43:41;7.35;;;3.38;;
20705;SDS011;10514;49.468;11.044;2022-09-13T14:51:25;3.28;;;2.50;;
20705;SDS011;10514;49.468;11.044;2022-09-13T14:54:07;4.22;;;2.60;;
20705;SDS011;10514;49.468;11.044;2022-09-13T14:56:43;5.30;;;3.05;;
20705;SDS011;10514;49.468;11.044;2022-09-13T14:59:16;5.82;;;3.17;;
20705;SDS011;10514;49.468;11.044;2022-09-13T15:01:50;5.40;;;3.10;;
20705;SDS011;10514;49.468;11.044;2022-09-13T15:04:16;4.40;;;2.65;;
20705;SDS011;10514;49.468;11.044;2022-09-13T15:06:43;4.53;;;2.95;;
20705;SDS011;10514;49.468;11.044;2022-09-13T15:11:36;2.53;;;2.30;;
20705;SDS011;10514;49.468;11.044;2022-09-13T15:16:46;3.45;;;2.65;;
20705;SDS011;10514;49.468;11.044;2022-09-13T15:21:46;2.88;;;2.38;;
20705;SDS011;10514;49.468;11.044;2022-09-13T15:24:20;6.93;;;2.53;;
20705;SDS011;10514;49.468;11.044;2022-09-13T15:26:46;3.75;;;2.53;;
20705;SDS011;10514;49.468;11.044;2022-09-13T15:29:16;2.90;;;2.60;;
20705;SDS011;10514;49.468;11.044;2022-09-13T15:31:43;5.65;;;3.03;;
20705;SDS011;10514;49.468;11.044;2022-09-13T15:36:47;3.92;;;2.53;;
20705;SDS011;10514;49.468;11.044;2022-09-13T15:41:50;2.92;;;2.58;;
20705;SDS011;10514;49.468;11.044;2022-09-13T15:44:17;3.13;;;2.83;;
20705;SDS011;10514;49.468;11.044;2022-09-13T15:46:47;3.72;;;2.45;;
20705;SDS011;10514;49.468;11.044;2022-09-13T15:49:17;5.68;;;2.42;;
20705;SDS011;10514;49.468;11.044;2022-09-13T15:51:43;3.08;;;2.35;;
20705;SDS011;10514;49.468;11.044;2022-09-13T15:54:10;4.25;;;2.58;;
20705;SDS011;10514;49.468;11.044;2022-09-13T15:56:37;3.50;;;2.80;;
20705;SDS011;10514;49.468;11.044;2022-09-13T15:59:04;7.85;;;2.88;;
20705;SDS011;10514;49.468;11.044;2022-09-13T16:01:30;5.72;;;3.85;;
20705;SDS011;10514;49.468;11.044;2022-09-13T16:03:56;3.55;;;2.80;;
20705;SDS011;10514;49.468;11.044;2022-09-13T16:06:22;3.13;;;2.60;;
20705;SDS011;10514;49.468;11.044;2022-09-13T16:08:48;9.38;;;6.60;;
20705;SDS011;10514;49.468;11.044;2022-09-13T16:11:14;9.88;;;7.90;;
20705;SDS011;10514;49.468;11.044;2022-09-13T16:13:40;10.75;;;8.73;;
20705;SDS011;10514;49.468;11.044;2022-09-13T16:16:06;6.97;;;6.18;;
20705;SDS011;10514;49.468;11.044;2022-09-13T16:18:32;4.55;;;3.92;;
20705;SDS011;10514;49.468;11.044;2022-09-13T16:20:58;4.68;;;3.40;;
20705;SDS011;10514;49.468;11.044;2022-09-13T16:23:24;3.95;;;2.88;;
20705;SDS011;10514;49.468;11.044;2022-09-13T16:25:51;3.80;;;2.75;;
20705;SDS011;10514;49.468;11.044;2022-09-13T16:28:19;3.95;;;3.03;;
20705;SDS011;10514;49.468;11.044;2022-09-13T16:30:47;4.50;;;3.15;;
20705;SDS011;10514;49.468;11.044;2022-09-13T16:33:13;3.00;;;2.72;;
20705;SDS011;10514;49.468;11.044;2022-09-13T16:35:39;3.03;;;2.55;;
20705;SDS011;10514;49.468;11.044;2022-09-13T16:38:05;8.73;;;2.70;;
20705;SDS011;10514;49.468;11.044;2022-09-13T16:40:31;6.05;;;4.28;;
20705;SDS011;10514;49.468;11.044;2022-09-13T16:42:57;9.75;;;6.55;;
20705;SDS011;10514;49.468;11.044;2022-09-13T16:45:23;6.55;;;5.22;;
20705;SDS011;10514;49.468;11.044;2022-09-13T16:47:49;7.25;;;5.13;;
20705;SDS011;10514;49.468;11.044;2022-09-13T16:50:15;6.43;;;4.53;;
20705;SDS011;10514;49.468;11.044;2022-09-13T16:52:41;5.47;;;4.00;;
20705;SDS011;10514;49.468;11.044;2022-09-13T16:55:07;4.95;;;3.83;;
20705;SDS011;10514;49.468;11.044;2022-09-13T16:57:34;4.70;;;3.70;;
20705;SDS011;10514;49.468;11.044;2022-09-13T17:00:00;5.03;;;3.28;;
20705;SDS011;10514;49.468;11.044;2022-09-13T17:02:28;5.03;;;3.13;;
20705;SDS011;10514;49.468;11.044;2022-09-13T17:04:54;4.13;;;3.03;;
20705;SDS011;10514;49.468;11.044;2022-09-13T17:07:20;5.07;;;3.10;;
20705;SDS011;10514;49.468;11.044;2022-09-13T17:09:46;3.60;;;2.90;;
20705;SDS011;10514;49.468;11.044;2022-09-13T17:12:12;8.07;;;4.30;;
20705;SDS011;10514;49.468;11.044;2022-09-13T17:14:39;5.82;;;3.78;;
20705;SDS011;10514;49.468;11.044;2022-09-13T17:17:11;3.97;;;3.50;;
20705;SDS011;10514;49.468;11.044;2022-09-13T17:19:37;4.75;;;3.70;;
20705;SDS011;10514;49.468;11.044;2022-09-13T17:22:03;5.55;;;3.63;;
20705;SDS011;10514;49.468;11.044;2022-09-13T17:24:32;5.00;;;3.53;;
20705;SDS011;10514;49.468;11.044;2022-09-13T17:26:58;4.18;;;3.03;;
20705;SDS011;10514;49.468;11.044;2022-09-13T17:29:24;4.40;;;3.40;;
20705;SDS011;10514;49.468;11.044;2022-09-13T17:31:54;6.90;;;4.30;;
20705;SDS011;10514;49.468;11.044;2022-09-13T17:34:20;6.57;;;3.83;;
20705;SDS011;10514;49.468;11.044;2022-09-13T17:36:46;7.07;;;3.97;;
20705;SDS011;10514;49.468;11.044;2022-09-13T17:39:12;4.75;;;3.90;;
20705;SDS011;10514;49.468;11.044;2022-09-13T17:41:38;6.43;;;4.60;;
20705;SDS011;10514;49.468;11.044;2022-09-13T17:44:04;4.45;;;3.63;;